Tamuín, SLP, Mexico
Current Conditions -  °F | °C
As of 6:05 AM on Sunday 23 Nov 2014 (Local Time) from MMTM Reporting Station
Haze Haze  
Wind Chill: 70°   Ceiling: 300
Heat Index: 70°   Visibility: 1mi
Dew Point: 68°   Wind: 8mph
Humidity: 94%   Direction: 360°N
Pressure: 29.78"   Gusts: NA
Location:  22.00694°N, 98.78861°W
Report Text: MMTM 231205Z 36007KT 1SM BR VV003 21/20 A2978 RMK 8////
Loading
Personal Weather Stations






























Interactive Weather Map New forecast layout! Learn more

10-Day Weather Forecast

Advertisements
Track Severe Weather on mobile